createdAt,value
2023-02-28T00:10:37.606Z,1.00
2023-02-28T00:41:07.445Z,1.00
2023-02-28T01:31:16.901Z,1.00
2023-02-28T01:42:23.191Z,1.00
2023-02-28T01:47:29.053Z,1.00
2023-02-28T01:52:32.729Z,4.00
2023-02-28T01:57:39.314Z,42.90
2023-02-28T02:02:45.097Z,30.10
2023-02-28T02:07:50.540Z,23.70
2023-02-28T02:13:13.778Z,39.40
2023-02-28T02:18:26.706Z,1.00
2023-02-28T02:24:00.444Z,54.70
2023-02-28T02:30:16.718Z,91.40
2023-02-28T02:35:42.965Z,99.90
2023-02-28T02:40:57.618Z,82.80
2023-02-28T02:46:25.487Z,81.70
2023-02-28T02:51:46.132Z,79.80
2023-02-28T02:57:02.021Z,99.90
2023-02-28T03:02:23.313Z,99.90
2023-02-28T03:07:35.832Z,99.90
2023-02-28T03:12:53.355Z,99.90
2023-02-28T03:18:11.286Z,99.90
2023-02-28T03:23:29.915Z,99.90
2023-02-28T03:28:50.884Z,99.90
2023-02-28T03:34:09.713Z,99.90
2023-02-28T03:39:31.337Z,99.90
2023-02-28T03:44:56.076Z,99.90
2023-02-28T03:50:42.844Z,99.90
2023-02-28T04:02:15.192Z,99.90
2023-02-28T04:08:09.185Z,99.90
2023-02-28T04:14:17.880Z,99.90
2023-02-28T06:12:52.053Z,99.90
2023-02-28T06:19:18.243Z,99.90
2023-02-28T06:30:37.920Z,99.90
2023-02-28T06:36:04.129Z,99.90
2023-02-28T06:41:54.676Z,99.90
2023-02-28T06:47:01.853Z,99.90
2023-02-28T08:07:52.997Z,1.00
2023-02-28T08:45:20.027Z,99.90
2023-02-28T08:51:20.380Z,99.90
2023-02-28T08:56:22.168Z,1.00
2023-02-28T09:01:29.221Z,99.90
2023-02-28T09:06:33.655Z,1.00
2023-02-28T09:11:37.338Z,1.00
2023-02-28T09:16:41.482Z,1.00
2023-02-28T09:21:44.188Z,1.00
2023-02-28T09:27:01.534Z,1.00
2023-02-28T09:32:08.099Z,1.00
2023-02-28T09:37:13.278Z,1.00
2023-02-28T09:42:23.964Z,1.00
2023-02-28T09:48:33.507Z,99.90
2023-02-28T09:54:23.786Z,99.90
2023-02-28T10:00:06.095Z,99.90
2023-02-28T10:06:12.714Z,99.90
2023-02-28T10:11:19.114Z,99.90
2023-02-28T10:16:27.606Z,99.90
2023-02-28T10:21:36.942Z,99.90
2023-02-28T10:26:43.690Z,99.90
2023-02-28T10:31:46.458Z,99.90
2023-02-28T10:36:51.134Z,99.90
2023-02-28T10:41:56.385Z,99.90
2023-02-28T10:46:59.903Z,99.90
2023-02-28T10:52:08.359Z,99.90
2023-02-28T10:57:19.655Z,99.90
2023-02-28T11:07:50.439Z,99.90
2023-02-28T11:13:00.888Z,99.90
2023-02-28T11:18:21.272Z,99.90
2023-02-28T11:23:28.582Z,99.90
2023-02-28T11:28:34.627Z,99.90
2023-02-28T11:33:45.882Z,99.90
2023-02-28T11:38:50.438Z,99.90
2023-02-28T11:44:07.401Z,99.90
2023-02-28T11:49:24.704Z,99.90
2023-02-28T11:54:43.983Z,99.90
2023-02-28T12:00:02.105Z,99.90
2023-02-28T12:05:22.493Z,99.90
2023-02-28T12:10:28.063Z,99.90
2023-02-28T12:15:47.728Z,99.90
2023-02-28T12:20:58.606Z,99.90
2023-02-28T12:26:10.391Z,99.90
2023-02-28T12:31:20.060Z,99.90
2023-02-28T12:36:24.731Z,99.90
2023-02-28T12:41:35.159Z,99.90
2023-02-28T12:46:44.388Z,99.90
2023-02-28T12:51:51.392Z,99.90
2023-02-28T12:57:01.370Z,99.90
2023-02-28T13:02:21.863Z,99.90
2023-02-28T13:08:08.934Z,99.90
2023-02-28T13:13:18.904Z,99.90
2023-02-28T13:18:32.898Z,99.90
2023-02-28T13:23:59.609Z,99.90
2023-02-28T13:29:05.576Z,99.90
2023-02-28T13:34:17.442Z,99.90
2023-02-28T13:39:50.546Z,99.90
2023-02-28T13:45:25.757Z,99.90
2023-02-28T13:50:38.940Z,99.90
2023-02-28T13:55:49.376Z,99.90
2023-02-28T14:01:14.654Z,99.90
2023-02-28T14:06:23.829Z,99.90
2023-02-28T14:11:30.691Z,99.90
2023-02-28T14:16:41.754Z,99.90
2023-02-28T14:22:02.982Z,99.90
2023-02-28T14:27:18.814Z,99.90
2023-02-28T14:32:31.045Z,99.90
2023-02-28T14:37:40.525Z,99.90
2023-02-28T14:42:50.052Z,99.90
2023-02-28T14:47:53.669Z,99.90
2023-02-28T14:52:58.284Z,99.90
2023-02-28T14:58:14.812Z,99.90
2023-02-28T15:03:24.594Z,99.90
2023-02-28T15:08:30.156Z,99.90
2023-02-28T15:13:39.453Z,99.90
2023-02-28T15:18:49.161Z,99.90
2023-02-28T15:23:56.987Z,99.90
2023-02-28T15:29:02.118Z,99.90
2023-02-28T15:34:07.970Z,99.90
2023-02-28T15:39:23.118Z,99.90
2023-02-28T15:44:30.437Z,99.90
2023-02-28T15:49:45.310Z,99.90
2023-02-28T15:54:50.266Z,99.90
2023-02-28T15:59:56.086Z,99.90
2023-02-28T16:05:01.584Z,99.90
2023-02-28T16:10:06.843Z,99.90
2023-02-28T16:15:18.880Z,99.90
2023-02-28T16:20:24.020Z,99.90
2023-02-28T16:25:36.029Z,99.90
2023-02-28T16:30:38.752Z,1.00
2023-02-28T16:35:41.887Z,1.00
2023-02-28T16:40:47.059Z,1.00
2023-02-28T16:45:49.777Z,1.00
2023-02-28T16:50:52.981Z,1.00
2023-02-28T16:55:57.131Z,99.90
2023-02-28T17:00:59.842Z,99.90
2023-02-28T17:06:02.574Z,99.90
2023-02-28T17:11:06.783Z,1.00
2023-02-28T17:16:19.434Z,1.00
2023-02-28T17:21:22.257Z,1.00
2023-02-28T17:26:27.358Z,1.00
2023-02-28T17:31:30.463Z,1.00
2023-02-28T17:36:35.673Z,99.90
2023-02-28T17:41:39.627Z,1.00
2023-02-28T17:46:43.295Z,1.00
2023-02-28T17:51:46.448Z,1.00
2023-02-28T17:56:50.383Z,1.00
2023-02-28T18:01:53.098Z,1.00
2023-02-28T18:07:00.717Z,1.00
2023-02-28T18:12:04.942Z,1.00
2023-02-28T18:17:07.591Z,1.00
2023-02-28T18:22:10.612Z,1.00
2023-02-28T18:27:14.740Z,1.00
2023-02-28T18:32:17.458Z,1.00
2023-02-28T18:37:20.817Z,1.00
2023-02-28T18:42:24.851Z,1.00
2023-02-28T18:47:27.588Z,1.00
2023-02-28T18:52:30.353Z,1.00
2023-02-28T18:57:34.376Z,1.00
2023-02-28T19:02:40.608Z,1.00
2023-02-28T19:07:43.378Z,1.00
2023-02-28T19:12:47.360Z,1.00
2023-02-28T19:17:50.053Z,1.00
2023-02-28T19:22:52.758Z,1.00
2023-02-28T19:27:57.488Z,1.00
2023-02-28T19:33:00.138Z,1.00
2023-02-28T19:38:02.772Z,1.00
2023-02-28T19:43:06.952Z,1.00
2023-02-28T19:48:10.102Z,1.00
2023-02-28T19:53:12.808Z,1.00
2023-02-28T19:58:16.838Z,1.00
2023-02-28T20:03:19.550Z,18.70
2023-02-28T20:08:24.260Z,10.80
2023-02-28T20:13:28.690Z,1.00
2023-02-28T20:18:31.504Z,1.00
2023-02-28T20:23:34.191Z,1.00
2023-02-28T20:28:38.746Z,1.00
2023-02-28T20:33:41.776Z,1.00
2023-02-28T20:38:44.529Z,1.00
2023-02-28T20:43:48.814Z,1.00
2023-02-28T22:34:44.578Z,99.90
2023-02-28T22:41:10.514Z,99.90
2023-02-28T22:46:20.092Z,99.90
2023-02-28T22:51:31.404Z,99.90
2023-02-28T22:56:42.502Z,99.90
2023-02-28T23:01:46.797Z,99.90
2023-02-28T23:06:51.571Z,99.90
2023-02-28T23:11:58.663Z,99.90
2023-02-28T23:17:02.094Z,99.90
2023-02-28T23:22:08.318Z,99.90
2023-02-28T23:27:15.409Z,99.90
2023-02-28T23:32:18.222Z,99.90
2023-02-28T23:37:20.960Z,99.90
2023-02-28T23:42:24.998Z,99.90
2023-02-28T23:47:27.751Z,99.90
2023-02-28T23:52:30.635Z,99.90
2023-02-28T23:57:35.668Z,99.90
